createdAt,value
2023-04-18T00:00:42.311Z,102980.44
2023-04-18T00:03:09.945Z,102977.16
2023-04-18T00:05:37.977Z,102971.34
2023-04-18T00:08:05.445Z,102971.25
2023-04-18T00:10:33.161Z,102981.06
2023-04-18T00:13:00.521Z,102979.41
2023-04-18T00:15:29.273Z,102970.06
2023-04-18T00:17:56.984Z,102971.41
2023-04-18T00:20:26.214Z,102982.97
2023-04-18T00:22:53.256Z,102971.69
2023-04-18T00:25:20.817Z,102974.16
2023-04-18T00:27:47.786Z,102980.72
2023-04-18T00:30:15.484Z,102974.09
2023-04-18T00:32:42.437Z,102981.16
2023-04-18T00:35:09.494Z,102982.75
2023-04-18T00:37:37.262Z,102983.09
2023-04-18T00:40:05.672Z,102973.44
2023-04-18T00:42:33.632Z,102983.09
2023-04-18T00:45:00.878Z,102978.75
2023-04-18T00:47:27.817Z,102985.06
2023-04-18T00:49:55.571Z,102979.84
2023-04-18T00:52:22.839Z,102988.34
2023-04-18T00:54:50.282Z,102980.66
2023-04-18T00:57:17.576Z,102981.75
2023-04-18T00:59:47.319Z,102982.25
2023-04-18T01:02:14.304Z,102980.91
2023-04-18T01:04:43.475Z,102988.91
2023-04-18T01:07:10.498Z,102985.63
2023-04-18T01:09:37.338Z,102988.97
2023-04-18T01:12:04.495Z,102997.78
2023-04-18T01:14:31.426Z,102990.41
2023-04-18T01:16:58.949Z,102989.13
2023-04-18T01:19:26.442Z,102981.25
2023-04-18T01:21:54.645Z,102979.59
2023-04-18T01:24:24.668Z,102987.31
2023-04-18T01:26:52.094Z,102980.16
2023-04-18T01:29:18.966Z,102987.88
2023-04-18T01:31:46.258Z,102979.16
2023-04-18T01:34:17.851Z,102976.19
2023-04-18T01:36:45.662Z,102981.13
2023-04-18T01:39:13.731Z,102979.47
2023-04-18T01:41:42.396Z,102981.69
2023-04-18T01:44:10.128Z,102977.81
2023-04-18T01:46:37.120Z,102980.03
2023-04-18T01:49:04.014Z,102988.78
2023-04-18T01:51:31.422Z,102977.53
2023-04-18T01:53:58.610Z,102975.31
2023-04-18T01:56:25.690Z,102982.72
2023-04-18T01:58:52.586Z,102977.50
2023-04-18T02:01:19.491Z,102978.38
2023-04-18T02:03:46.982Z,102982.47
2023-04-18T02:06:14.095Z,102976.91
2023-04-18T02:08:41.020Z,102979.66
2023-04-18T02:11:08.033Z,102973.91
2023-04-18T02:13:35.280Z,102976.72
2023-04-18T02:16:11.890Z,102976.44
2023-04-18T02:18:40.240Z,102977.25
2023-04-18T02:21:07.307Z,102968.53
2023-04-18T02:23:34.249Z,102964.19
2023-04-18T02:26:01.311Z,102970.25
2023-04-18T02:28:28.285Z,102970.50
2023-04-18T02:30:55.116Z,102967.50
2023-04-18T02:33:21.934Z,102970.00
2023-04-18T02:35:48.782Z,102974.13
2023-04-18T02:38:16.233Z,102965.91
2023-04-18T02:40:43.144Z,102970.84
2023-04-18T02:43:10.154Z,102979.88
2023-04-18T02:45:37.272Z,102979.88
2023-04-18T02:48:05.131Z,102973.63
2023-04-18T02:50:35.578Z,102982.69
2023-04-18T02:53:02.803Z,102981.91
2023-04-18T02:55:41.671Z,102976.66
2023-04-18T02:58:09.286Z,102980.78
2023-04-18T03:00:56.213Z,102987.09
2023-04-18T03:03:42.355Z,102982.72
2023-04-18T03:06:38.712Z,102985.47
2023-04-18T03:09:06.360Z,102982.41
2023-04-18T03:11:36.306Z,102983.50
2023-04-18T03:14:03.953Z,102979.41
2023-04-18T03:16:40.549Z,102971.66
2023-04-18T03:19:10.663Z,102978.75
2023-04-18T03:21:37.977Z,102974.03
2023-04-18T03:24:05.307Z,102979.19
2023-04-18T03:26:33.887Z,102981.00
2023-04-18T03:29:03.003Z,102983.50
2023-04-18T03:31:30.068Z,102994.41
2023-04-18T03:33:57.104Z,102994.66
2023-04-18T03:36:25.436Z,102994.41
2023-04-18T03:38:54.868Z,102997.03
2023-04-18T03:41:21.916Z,102993.13
2023-04-18T03:43:48.917Z,102995.88
2023-04-18T03:46:15.907Z,102994.75
2023-04-18T03:48:43.014Z,102996.13
2023-04-18T03:51:12.219Z,102993.91
2023-04-18T03:53:39.551Z,103009.50
2023-04-18T03:56:07.234Z,102989.16
2023-04-18T03:58:55.124Z,102993.25
2023-04-18T04:01:22.728Z,102994.34
2023-04-18T04:03:51.943Z,102993.25
2023-04-18T04:06:19.043Z,103003.41
2023-04-18T04:08:46.057Z,102989.16
2023-04-18T04:11:14.940Z,102988.34
2023-04-18T04:13:42.832Z,103002.34
2023-04-18T04:16:11.390Z,102992.72
2023-04-18T04:18:38.618Z,103003.72
2023-04-18T04:21:06.832Z,102992.19
2023-04-18T04:23:43.002Z,103002.66
2023-04-18T04:26:15.218Z,103001.56
2023-04-18T04:28:53.949Z,103003.94
2023-04-18T04:31:24.293Z,103005.41
2023-04-18T04:33:51.290Z,103006.47
2023-04-18T04:36:23.040Z,103005.63
2023-04-18T04:38:52.918Z,103019.66
2023-04-18T04:41:27.846Z,103013.06
2023-04-18T04:43:55.205Z,103013.56
2023-04-18T04:46:30.391Z,103024.88
2023-04-18T04:48:58.521Z,103017.66
2023-04-18T04:51:28.055Z,103017.91
2023-04-18T04:53:55.741Z,103022.25
2023-04-18T04:56:23.897Z,103012.09
2023-04-18T04:58:51.302Z,103023.91
2023-04-18T05:01:22.966Z,103018.09
2023-04-18T05:03:51.892Z,103024.97
2023-04-18T05:06:20.838Z,103022.50
2023-04-18T05:08:51.256Z,103018.34
2023-04-18T05:11:18.280Z,103020.78
2023-04-18T05:13:45.301Z,103023.84
2023-04-18T05:16:12.341Z,103016.94
2023-04-18T05:18:41.132Z,103023.47
2023-04-18T05:21:10.929Z,103031.97
2023-04-18T05:23:37.839Z,103029.16
2023-04-18T05:26:05.873Z,103030.03
2023-04-18T05:28:32.965Z,103032.22
2023-04-18T05:31:02.902Z,103032.38
2023-04-18T05:33:31.402Z,103030.41
2023-04-18T05:35:59.107Z,103029.53
2023-04-18T05:38:26.655Z,103024.56
2023-04-18T05:40:55.821Z,103028.94
2023-04-18T05:43:23.390Z,103034.97
2023-04-18T05:45:52.409Z,103035.78
2023-04-18T05:48:19.825Z,103030.97
2023-04-18T05:50:46.873Z,103043.88
2023-04-18T05:53:13.863Z,103043.88
2023-04-18T05:55:41.325Z,103041.88
2023-04-18T05:58:08.320Z,103039.03
2023-04-18T06:00:35.843Z,103045.97
2023-04-18T06:03:03.076Z,103039.47
2023-04-18T06:05:30.715Z,103042.53
2023-04-18T06:07:58.021Z,103040.06
2023-04-18T06:10:25.139Z,103036.28
2023-04-18T06:12:52.039Z,103039.03
2023-04-18T06:15:19.070Z,103045.03
2023-04-18T06:17:46.118Z,103038.38
2023-04-18T06:20:13.445Z,103043.16
2023-04-18T06:22:40.640Z,103039.16
2023-04-18T06:25:09.980Z,103039.75
2023-04-18T06:27:38.969Z,103052.81
2023-04-18T06:30:08.889Z,103047.38
2023-04-18T06:32:36.164Z,103052.34
2023-04-18T06:35:03.181Z,103066.88
2023-04-18T06:37:30.152Z,103068.22
2023-04-18T06:39:57.161Z,103067.63
2023-04-18T06:42:24.222Z,103072.31
2023-04-18T06:44:51.067Z,103070.88
2023-04-18T06:47:18.098Z,103080.44
2023-04-18T06:49:45.048Z,103083.19
2023-04-18T06:52:12.012Z,103082.88
2023-04-18T06:54:38.900Z,103080.97
2023-04-18T06:57:06.462Z,103085.59
2023-04-18T06:59:33.387Z,103085.00
2023-04-18T07:02:00.291Z,103091.03
2023-04-18T07:04:27.306Z,103093.78
2023-04-18T07:06:54.700Z,103083.28
2023-04-18T07:09:22.748Z,103088.75
2023-04-18T07:11:51.216Z,103090.13
2023-04-18T07:14:19.979Z,103088.66
2023-04-18T07:16:47.216Z,103090.81
2023-04-18T07:19:14.377Z,103089.41
2023-04-18T07:21:43.706Z,103088.00
2023-04-18T07:24:11.450Z,103092.56
2023-04-18T07:26:38.945Z,103098.22
2023-04-18T07:29:05.915Z,103092.69
2023-04-18T07:31:33.075Z,103102.63
2023-04-18T07:34:00.143Z,103093.75
2023-04-18T07:36:28.394Z,103097.25
2023-04-18T07:38:55.367Z,103099.63
2023-04-18T07:41:22.972Z,103101.94
2023-04-18T07:43:49.804Z,103102.66
2023-04-18T07:46:16.946Z,103098.50
2023-04-18T07:48:43.940Z,103095.09
2023-04-18T07:51:11.966Z,103096.56
2023-04-18T07:53:41.035Z,103095.66
2023-04-18T07:56:08.047Z,103093.72
2023-04-18T07:58:35.111Z,103096.63
2023-04-18T08:01:02.791Z,103088.88
2023-04-18T08:03:30.323Z,103092.28
2023-04-18T08:05:57.344Z,103083.63
2023-04-18T08:08:24.295Z,103089.69
2023-04-18T08:10:51.638Z,103092.56
2023-04-18T08:13:18.588Z,103101.56
2023-04-18T08:15:46.716Z,103095.44
2023-04-18T08:18:13.770Z,103082.88
2023-04-18T08:20:40.917Z,103099.75
2023-04-18T08:23:11.154Z,103084.22
2023-04-18T08:25:39.858Z,103091.47
2023-04-18T08:28:08.444Z,103084.56
2023-04-18T08:30:35.470Z,103090.66
2023-04-18T08:33:02.753Z,103092.53
2023-04-18T08:35:29.806Z,103088.63
2023-04-18T08:37:56.694Z,103092.41
2023-04-18T08:40:24.471Z,103093.25
2023-04-18T08:42:53.408Z,103092.22
2023-04-18T08:45:20.997Z,103089.63
2023-04-18T08:47:48.233Z,103080.59
2023-04-18T08:50:16.609Z,103083.06
2023-04-18T08:52:49.980Z,103095.53
2023-04-18T08:55:17.058Z,103076.59
2023-04-18T08:57:45.027Z,103075.69
2023-04-18T09:00:12.776Z,103085.78
2023-04-18T09:02:45.113Z,103082.09
2023-04-18T09:05:19.771Z,103093.53
2023-04-18T09:07:51.522Z,103089.56
2023-04-18T09:10:33.265Z,103075.25
2023-04-18T09:13:03.548Z,103088.13
2023-04-18T09:15:30.971Z,103079.66
2023-04-18T09:18:02.311Z,103083.53
2023-04-18T09:20:43.835Z,103078.69
2023-04-18T09:23:14.911Z,103086.50
2023-04-18T09:25:44.419Z,103089.78
2023-04-18T09:28:29.508Z,103089.03
2023-04-18T09:30:58.911Z,103095.38
2023-04-18T09:33:36.775Z,103083.44
2023-04-18T09:36:21.496Z,103088.91
2023-04-18T09:38:49.734Z,103096.00
2023-04-18T09:41:19.846Z,103094.91
2023-04-18T09:43:48.334Z,103085.72
2023-04-18T09:46:17.765Z,103087.97
2023-04-18T09:48:44.886Z,103085.91
2023-04-18T09:51:15.869Z,103084.22
2023-04-18T09:53:47.888Z,103092.22
2023-04-18T09:56:23.922Z,103068.50
2023-04-18T09:58:57.138Z,103085.03
2023-04-18T10:01:28.969Z,103076.06
2023-04-18T10:03:57.726Z,103080.34
2023-04-18T10:06:27.485Z,103078.13
2023-04-18T10:08:55.175Z,103078.47
2023-04-18T10:11:24.290Z,103071.97
2023-04-18T10:13:56.394Z,103081.63
2023-04-18T10:16:24.317Z,103076.75
2023-04-18T10:18:52.373Z,103081.81
2023-04-18T10:21:19.268Z,103075.81
2023-04-18T10:23:48.917Z,103070.63
2023-04-18T10:26:16.431Z,103087.25
2023-04-18T10:28:59.667Z,103073.88
2023-04-18T10:31:28.764Z,103073.25
2023-04-18T10:36:28.784Z,103070.16
2023-04-18T10:39:21.059Z,103068.69
2023-04-18T10:41:51.723Z,103064.69
2023-04-18T10:44:23.568Z,103070.06
2023-04-18T10:46:51.177Z,103062.94
2023-04-18T10:49:27.845Z,103063.13
2023-04-18T10:52:00.691Z,103073.38
2023-04-18T10:54:28.551Z,103059.03
2023-04-18T10:56:57.094Z,103056.91
2023-04-18T10:59:25.429Z,103052.84
2023-04-18T11:01:59.624Z,103055.47
2023-04-18T11:04:28.756Z,103053.16
2023-04-18T11:06:57.543Z,103055.28
2023-04-18T11:09:25.314Z,103052.31
2023-04-18T11:12:06.553Z,103046.38
2023-04-18T11:14:44.662Z,103044.38
2023-04-18T11:17:18.300Z,103041.44
2023-04-18T11:19:45.740Z,103043.72
2023-04-18T11:22:12.968Z,103030.84
2023-04-18T11:24:39.968Z,103034.88
2023-04-18T11:27:10.476Z,103053.66
2023-04-18T11:29:38.140Z,103031.00
2023-04-18T11:32:09.520Z,103038.97
2023-04-18T11:34:36.650Z,103026.59
2023-04-18T11:37:07.786Z,103033.38
2023-04-18T11:39:40.916Z,103029.88
2023-04-18T11:42:09.071Z,103032.44
2023-04-18T11:44:39.714Z,103028.22
2023-04-18T11:47:23.096Z,103028.06
2023-04-18T11:49:58.012Z,103020.34
2023-04-18T11:52:29.845Z,103024.34
2023-04-18T11:54:58.230Z,103024.56
2023-04-18T11:57:28.576Z,103027.31
2023-04-18T11:59:58.136Z,103026.13
2023-04-18T12:02:27.977Z,103027.88
2023-04-18T12:04:59.948Z,103021.34
2023-04-18T12:07:45.887Z,103022.16
2023-04-18T12:10:31.096Z,103016.22
2023-04-18T12:12:59.208Z,103026.34
2023-04-18T12:15:28.324Z,103013.59
2023-04-18T12:18:00.871Z,103021.72
2023-04-18T12:20:54.667Z,103015.38
2023-04-18T12:23:40.409Z,103008.09
2023-04-18T12:26:12.121Z,103004.09
2023-04-18T12:28:39.107Z,103010.22
2023-04-18T12:31:07.381Z,103017.19
2023-04-18T12:33:36.682Z,103030.50
2023-04-18T12:36:05.538Z,103008.19
2023-04-18T12:38:32.444Z,103006.28
2023-04-18T12:40:59.274Z,103014.47
2023-04-18T12:43:26.617Z,103011.78
2023-04-18T12:45:53.739Z,103004.66
2023-04-18T12:48:21.055Z,103006.50
2023-04-18T12:50:48.048Z,103009.25
2023-04-18T12:53:14.931Z,102998.56
2023-04-18T12:55:41.881Z,102993.69
2023-04-18T12:58:08.871Z,102995.03
2023-04-18T13:00:35.925Z,102995.72
2023-04-18T13:03:03.102Z,102989.34
2023-04-18T13:05:33.018Z,102997.81
2023-04-18T13:10:31.891Z,103000.13
2023-04-18T13:12:58.742Z,102997.81
2023-04-18T13:15:27.573Z,103004.38
2023-04-18T13:17:56.248Z,103006.78
2023-04-18T13:20:23.445Z,103014.81
2023-04-18T13:22:50.461Z,102998.13
2023-04-18T13:25:17.384Z,103010.81
2023-04-18T13:27:45.883Z,102995.81
2023-04-18T13:30:13.222Z,102989.66
2023-04-18T13:32:41.301Z,102999.75
2023-04-18T13:35:11.212Z,102990.75
2023-04-18T13:37:38.750Z,102987.84
2023-04-18T13:40:06.870Z,102988.31
2023-04-18T13:42:35.903Z,102987.25
2023-04-18T13:45:03.309Z,102986.94
2023-04-18T13:47:30.673Z,102985.09
2023-04-18T13:49:57.879Z,102991.28
2023-04-18T13:52:26.156Z,102986.31
2023-04-18T13:54:53.309Z,102994.97
2023-04-18T13:57:21.021Z,102988.44
2023-04-18T13:59:48.069Z,102985.09
2023-04-18T14:02:15.221Z,102988.88
2023-04-18T14:04:42.716Z,102983.47
2023-04-18T14:07:09.887Z,102992.44
2023-04-18T14:09:36.755Z,102980.72
2023-04-18T14:12:03.833Z,102985.53
2023-04-18T14:14:30.862Z,102991.31
2023-04-18T14:16:57.857Z,102985.00
2023-04-18T14:19:26.738Z,102983.28
2023-04-18T14:21:53.752Z,102983.16
2023-04-18T14:24:20.691Z,102985.56
2023-04-18T14:26:48.136Z,102990.75
2023-04-18T14:29:15.353Z,102986.50
2023-04-18T14:31:42.599Z,102990.28
2023-04-18T14:34:09.908Z,102976.03
2023-04-18T14:36:37.045Z,102983.72
2023-04-18T14:39:04.716Z,102990.97
2023-04-18T14:41:31.791Z,102979.09
2023-04-18T14:43:59.212Z,102986.22
2023-04-18T14:46:28.237Z,102979.25
2023-04-18T14:48:55.334Z,102978.22
2023-04-18T14:51:23.725Z,102980.34
2023-04-18T14:53:50.667Z,102977.31
2023-04-18T14:56:21.087Z,102969.38
2023-04-18T14:58:48.514Z,102986.28
2023-04-18T15:01:17.466Z,102974.88
2023-04-18T15:03:44.907Z,102971.13
2023-04-18T15:06:11.908Z,102976.25
2023-04-18T15:08:38.888Z,102976.75
2023-04-18T15:11:09.100Z,102974.16
2023-04-18T15:13:36.840Z,102974.28
2023-04-18T15:16:04.013Z,102973.56
2023-04-18T15:18:31.288Z,102969.81
2023-04-18T15:21:01.496Z,102961.13
2023-04-18T15:23:28.352Z,102963.78
2023-04-18T15:25:55.384Z,102961.84
2023-04-18T15:28:22.298Z,102963.44
2023-04-18T15:30:49.217Z,102965.19
2023-04-18T15:33:20.442Z,102970.22
2023-04-18T15:35:47.896Z,102960.63
2023-04-18T15:38:14.880Z,102967.16
2023-04-18T15:40:43.431Z,102958.41
2023-04-18T15:43:10.394Z,102965.06
2023-04-18T15:45:37.372Z,102958.78
2023-04-18T15:48:04.633Z,102963.97
2023-04-18T15:50:33.238Z,102957.56
2023-04-18T15:53:00.800Z,102963.00
2023-04-18T15:55:28.029Z,102955.66
2023-04-18T15:57:55.560Z,102952.25
2023-04-18T16:00:23.592Z,102957.47
2023-04-18T16:02:50.980Z,102954.41
2023-04-18T16:05:19.042Z,102950.75
2023-04-18T16:07:45.948Z,102952.25
2023-04-18T16:10:13.054Z,102946.50
2023-04-18T16:12:40.467Z,102957.53
2023-04-18T16:15:09.136Z,102958.94
2023-04-18T16:17:37.668Z,102954.41
2023-04-18T16:20:08.859Z,102955.38
2023-04-18T16:22:36.702Z,102950.28
2023-04-18T16:25:04.765Z,102961.03
2023-04-18T16:27:32.272Z,102957.53
2023-04-18T16:29:59.119Z,102969.13
2023-04-18T16:32:26.093Z,102970.72
2023-04-18T16:34:53.261Z,102971.03
2023-04-18T16:37:20.426Z,102975.25
2023-04-18T16:39:47.392Z,102986.72
2023-04-18T16:42:15.907Z,102980.13
2023-04-18T16:44:44.792Z,102986.81
2023-04-18T16:47:11.929Z,102974.44
2023-04-18T16:49:39.014Z,102978.03
2023-04-18T16:52:05.939Z,102976.88
2023-04-18T16:54:32.981Z,102973.44
2023-04-18T16:56:59.896Z,102978.03
2023-04-18T16:59:26.814Z,102965.63
2023-04-18T17:01:53.883Z,102972.25
2023-04-18T17:04:21.466Z,102968.44
2023-04-18T17:06:49.670Z,102972.50
2023-04-18T17:09:18.106Z,102969.44
2023-04-18T17:11:45.033Z,102971.53
2023-04-18T17:14:12.113Z,102978.03
2023-04-18T17:16:40.211Z,102974.28
2023-04-18T17:19:07.917Z,102984.00
2023-04-18T17:21:35.687Z,102978.25
2023-04-18T17:24:03.992Z,102976.47
2023-04-18T17:26:31.527Z,102982.81
2023-04-18T17:28:59.087Z,102980.00
2023-04-18T17:31:26.338Z,102991.19
2023-04-18T17:33:54.647Z,102984.84
2023-04-18T17:36:21.743Z,102984.53
2023-04-18T17:38:51.635Z,102984.34
2023-04-18T17:41:20.234Z,102989.47
2023-04-18T17:43:48.282Z,102987.09
2023-04-18T17:46:15.703Z,102983.47
2023-04-18T17:48:43.165Z,102981.97
2023-04-18T17:51:10.218Z,102989.88
2023-04-18T17:53:37.084Z,102992.03
2023-04-18T17:56:04.718Z,102990.72
2023-04-18T17:58:32.051Z,103001.22
2023-04-18T18:00:59.100Z,102991.03
2023-04-18T18:03:26.231Z,102993.09
2023-04-18T18:05:55.004Z,102995.94
2023-04-18T18:08:22.741Z,102984.53
2023-04-18T18:10:50.130Z,102989.16
2023-04-18T18:13:17.107Z,102990.75
2023-04-18T18:15:44.036Z,102992.13
2023-04-18T18:18:11.787Z,102995.81
2023-04-18T18:20:42.042Z,102995.91
2023-04-18T18:23:09.044Z,102997.34
2023-04-18T18:25:37.667Z,102995.63
2023-04-18T18:28:04.763Z,102998.28
2023-04-18T18:30:32.469Z,102994.50
2023-04-18T18:33:00.756Z,103002.88
2023-04-18T18:35:27.829Z,102996.44
2023-04-18T18:37:55.065Z,102994.38
2023-04-18T18:40:22.112Z,103004.91
2023-04-18T18:42:54.835Z,102995.41
2023-04-18T18:45:21.946Z,103000.50
2023-04-18T18:47:49.425Z,103005.81
2023-04-18T18:50:16.621Z,103011.94
2023-04-18T18:52:43.539Z,103009.75
2023-04-18T18:55:11.234Z,103013.09
2023-04-18T18:57:38.354Z,103009.09
2023-04-18T19:00:12.275Z,103013.28
2023-04-18T19:02:40.398Z,103022.47
2023-04-18T19:05:07.939Z,103018.66
2023-04-18T19:07:34.895Z,103013.75
2023-04-18T19:10:01.901Z,103021.81
2023-04-18T19:12:29.388Z,103028.72
2023-04-18T19:14:56.465Z,103027.19
2023-04-18T19:17:24.940Z,103024.19
2023-04-18T19:19:53.146Z,103032.25
2023-04-18T19:22:20.441Z,103030.09
2023-04-18T19:24:47.571Z,103036.72
2023-04-18T19:27:14.497Z,103042.00
2023-04-18T19:29:41.625Z,103031.88
2023-04-18T19:32:08.855Z,103029.44
2023-04-18T19:34:36.174Z,103030.53
2023-04-18T19:37:03.749Z,103030.84
2023-04-18T19:39:30.749Z,103032.28
2023-04-18T19:41:57.605Z,103035.09
2023-04-18T19:44:24.798Z,103031.81
2023-04-18T19:46:51.735Z,103031.31
2023-04-18T19:49:18.820Z,103031.91
2023-04-18T19:51:45.914Z,103033.28
2023-04-18T19:54:13.447Z,103042.97
2023-04-18T19:56:40.560Z,103038.59
2023-04-18T19:59:07.691Z,103032.53
2023-04-18T20:01:34.889Z,103037.53
2023-04-18T20:04:02.315Z,103037.63
2023-04-18T20:06:29.566Z,103033.81
2023-04-18T20:08:56.922Z,103038.22
2023-04-18T20:11:24.872Z,103034.69
2023-04-18T20:13:54.711Z,103035.47
2023-04-18T20:16:22.311Z,103032.25
2023-04-18T20:18:50.102Z,103030.59
2023-04-18T20:21:17.105Z,103035.00
2023-04-18T20:23:45.385Z,103043.75
2023-04-18T20:26:12.212Z,103047.94
2023-04-18T20:28:39.118Z,103043.25
2023-04-18T20:31:06.342Z,103036.09
2023-04-18T20:33:33.364Z,103042.66
2023-04-18T20:36:00.377Z,103044.06
2023-04-18T20:38:29.894Z,103039.97
2023-04-18T20:40:58.972Z,103046.66
2023-04-18T20:43:26.091Z,103045.84
2023-04-18T20:45:53.939Z,103044.19
2023-04-18T20:48:21.323Z,103046.66
2023-04-18T20:50:51.555Z,103053.00
2023-04-18T20:53:21.084Z,103052.16
2023-04-18T20:55:48.670Z,103044.94
2023-04-18T20:58:15.845Z,103038.34
2023-04-18T21:00:44.581Z,103046.59
2023-04-18T21:03:14.961Z,103051.03
2023-04-18T21:05:43.721Z,103047.50
2023-04-18T21:08:13.527Z,103050.53
2023-04-18T21:10:40.711Z,103054.69
2023-04-18T21:13:09.210Z,103057.13
2023-04-18T21:15:36.322Z,103059.13
2023-04-18T21:18:03.369Z,103064.63
2023-04-18T21:20:30.514Z,103068.78
2023-04-18T21:22:57.427Z,103064.69
2023-04-18T21:25:24.750Z,103070.47
2023-04-18T21:27:51.887Z,103062.03
2023-04-18T21:30:18.827Z,103068.09
2023-04-18T21:32:47.313Z,103063.41
2023-04-18T21:35:15.317Z,103069.22
2023-04-18T21:37:43.524Z,103066.41
2023-04-18T21:40:11.109Z,103069.72
2023-04-18T21:42:38.264Z,103057.16
2023-04-18T21:45:06.197Z,103067.88
2023-04-18T21:47:33.221Z,103068.69
2023-04-18T21:50:00.188Z,103063.72
2023-04-18T21:52:27.041Z,103058.44
2023-04-18T21:54:54.020Z,103061.19
2023-04-18T21:57:21.257Z,103057.91
2023-04-18T21:59:48.306Z,103058.56
2023-04-18T22:02:15.665Z,103067.28
2023-04-18T22:04:42.826Z,103063.41
2023-04-18T22:07:11.451Z,103053.56
2023-04-18T22:09:38.621Z,103050.03
2023-04-18T22:12:05.694Z,103047.91
2023-04-18T22:14:32.533Z,103048.72
2023-04-18T22:17:01.754Z,103047.31
2023-04-18T22:19:29.523Z,103048.44
2023-04-18T22:21:56.433Z,103056.38
2023-04-18T22:24:23.617Z,103058.06
2023-04-18T22:26:50.637Z,103052.94
2023-04-18T22:29:17.612Z,103052.97
2023-04-18T22:31:44.592Z,103058.53
2023-04-18T22:34:11.641Z,103059.13
2023-04-18T22:36:38.458Z,103053.91
2023-04-18T22:39:06.387Z,103061.38
2023-04-18T22:41:33.373Z,103057.28
2023-04-18T22:44:00.275Z,103055.69
2023-04-18T22:46:27.418Z,103054.94
2023-04-18T22:48:54.818Z,103062.31
2023-04-18T22:51:23.692Z,103060.44
2023-04-18T22:53:50.964Z,103062.91
2023-04-18T22:56:17.889Z,103064.84
2023-04-18T22:58:44.693Z,103062.91
2023-04-18T23:01:11.743Z,103064.59
2023-04-18T23:03:39.282Z,103070.69
2023-04-18T23:06:08.956Z,103069.03
2023-04-18T23:08:35.966Z,103072.63
2023-04-18T23:11:02.854Z,103074.03
2023-04-18T23:13:29.773Z,103066.91
2023-04-18T23:15:56.747Z,103073.19
2023-04-18T23:18:23.738Z,103068.28
2023-04-18T23:20:50.815Z,103064.44
2023-04-18T23:23:17.722Z,103074.09
2023-04-18T23:25:44.584Z,103080.16
2023-04-18T23:28:13.603Z,103079.56
2023-04-18T23:30:40.631Z,103074.34
2023-04-18T23:33:08.522Z,103072.72
2023-04-18T23:35:35.545Z,103072.16
2023-04-18T23:38:02.649Z,103082.06
2023-04-18T23:40:30.062Z,103081.00
2023-04-18T23:42:57.181Z,103085.69
2023-04-18T23:45:24.719Z,103082.97
2023-04-18T23:47:52.187Z,103086.28
2023-04-18T23:50:19.658Z,103077.56
2023-04-18T23:52:46.676Z,103084.69
2023-04-18T23:55:14.138Z,103078.66
2023-04-18T23:57:41.068Z,103071.81
